Time;durP1;ratioP1;P1;durP2;ratioP2;P2;SDS_P1;SDS_P2;PMS_P1;PMS_P2;Temp;Humidity;BMP_temperature;BMP_pressure;BME280_temperature;BME280_humidity;BME280_pressure;Samples;Min_cycle;Max_cycle;Signal;HPM_P1;HPM_P2
2023/04/29 00:01:10;;;;;;;;;;;10.70;99.90;;;;;;5177053;27;19914;-38
2023/04/29 00:03:36;;;;;;;;;;;10.70;99.90;;;;;;5176575;27;19907;-38
2023/04/29 00:06:01;;;;;;;;;;;10.70;99.90;;;;;;5177184;27;20380;-38
2023/04/29 00:08:27;;;;;;;;;;;10.70;99.90;;;;;;5177098;27;19914;-38
2023/04/29 00:10:52;;;;;;;;;;;10.70;99.90;;;;;;5158998;27;19908;-38
2023/04/29 00:13:18;;;;;;;;;;;10.60;99.90;;;;;;5156187;27;19958;-38
2023/04/29 00:15:43;;;;;;;;;;;10.60;99.90;;;;;;5169871;27;19911;-38
2023/04/29 00:18:09;;;;;;;;;;;10.60;99.90;;;;;;5176331;27;19906;-38
2023/04/29 00:20:36;;;;;;;;;;;10.60;99.90;;;;;;5177022;27;19959;-38
2023/04/29 00:23:02;;;;;;;;;;;10.60;99.90;;;;;;5176747;27;19986;-38
2023/04/29 00:25:28;;;;;;;;;;;10.60;99.90;;;;;;5176279;27;19998;-38
2023/04/29 00:27:53;;;;;;;;;;;10.60;99.90;;;;;;5176905;27;20373;-38
2023/04/29 00:30:19;;;;;;;;;;;10.60;99.90;;;;;;5176519;27;20344;-38
2023/04/29 00:32:45;;;;;;;;;;;10.60;99.90;;;;;;5176080;27;19907;-38
2023/04/29 00:35:10;;;;;;;;;;;10.60;99.90;;;;;;5176796;27;19910;-38
2023/04/29 00:37:36;;;;;;;;;;;10.60;99.90;;;;;;5176722;27;19994;-38
2023/04/29 00:40:03;;;;;;;;;;;10.60;99.90;;;;;;5175877;27;19907;-38
2023/04/29 00:42:31;;;;;;;;;;;10.60;99.90;;;;;;5176512;27;19918;-37
2023/04/29 00:44:57;;;;;;;;;;;10.60;99.90;;;;;;5175808;27;19911;-38
2023/04/29 00:47:22;;;;;;;;;;;10.60;99.90;;;;;;5175594;27;20391;-38
2023/04/29 00:49:48;;;;;;;;;;;10.60;99.90;;;;;;5176633;27;20001;-38
2023/04/29 00:52:13;;;;;;;;;;;10.60;99.90;;;;;;5176035;27;20310;-38
2023/04/29 00:54:39;;;;;;;;;;;10.60;99.90;;;;;;5176348;27;19914;-38
2023/04/29 00:57:06;;;;;;;;;;;10.60;99.90;;;;;;5176207;27;19910;-38
2023/04/29 00:59:33;;;;;;;;;;;10.50;99.90;;;;;;5175221;27;19907;-38
2023/04/29 01:01:59;;;;;;;;;;;10.50;99.90;;;;;;5176269;27;19975;-38
2023/04/29 01:04:25;;;;;;;;;;;10.50;99.90;;;;;;5176118;27;19907;-38
2023/04/29 01:06:59;;;;;;;;;;;10.50;99.90;;;;;;5175295;27;19907;-38
2023/04/29 01:09:28;;;;;;;;;;;10.40;99.90;;;;;;5175951;27;19907;-37
2023/04/29 01:12:12;;;;;;;;;;;10.40;99.90;;;;;;5176064;27;19929;-38
2023/04/29 01:14:38;;;;;;;;;;;10.50;99.90;;;;;;5174698;27;19995;-38
2023/04/29 01:17:08;;;;;;;;;;;10.40;99.90;;;;;;5175549;27;19915;-37
2023/04/29 01:19:37;;;;;;;;;;;10.40;99.90;;;;;;5175816;27;19907;-38
2023/04/29 01:22:02;;;;;;;;;;;10.40;99.90;;;;;;5175099;27;20376;-38
2023/04/29 01:24:28;;;;;;;;;;;10.40;99.90;;;;;;5175720;27;19907;-38
2023/04/29 01:26:56;;;;;;;;;;;10.40;99.90;;;;;;5175837;27;20425;-38
2023/04/29 01:29:28;;;;;;;;;;;10.40;99.90;;;;;;5165334;27;20373;-39
2023/04/29 01:31:58;;;;;;;;;;;10.40;99.90;;;;;;5164895;27;19925;-38
2023/04/29 01:34:29;;;;;;;;;;;10.30;99.90;;;;;;5154477;27;20017;-38
2023/04/29 01:37:18;;;;;;;;;;;10.30;99.90;;;;;;5154578;27;19998;-38
2023/04/29 01:39:45;;;;;;;;;;;10.30;99.90;;;;;;5140913;27;20456;-38
2023/04/29 01:42:18;;;;;;;;;;;10.30;99.90;;;;;;5153853;27;19907;-38
2023/04/29 01:44:45;;;;;;;;;;;10.30;99.90;;;;;;5168925;27;19911;-38
2023/04/29 01:47:12;;;;;;;;;;;10.30;99.90;;;;;;5175219;27;19907;-38
2023/04/29 01:49:38;;;;;;;;;;;10.30;99.90;;;;;;5155383;27;19907;-37
2023/04/29 01:52:04;;;;;;;;;;;10.30;99.90;;;;;;5175445;27;20269;-38
2023/04/29 01:54:30;;;;;;;;;;;10.30;99.90;;;;;;5175297;27;19984;-38
2023/04/29 01:56:57;;;;;;;;;;;10.30;99.90;;;;;;5174748;27;19918;-38
2023/04/29 01:59:22;;;;;;;;;;;10.30;99.90;;;;;;5175058;27;19907;-38
2023/04/29 02:01:48;;;;;;;;;;;10.30;99.90;;;;;;5164103;27;19914;-38
2023/04/29 02:04:13;;;;;;;;;;;10.30;99.90;;;;;;5153724;27;19911;-38
2023/04/29 02:06:39;;;;;;;;;;;10.30;99.90;;;;;;5154232;27;20164;-38
2023/04/29 02:09:05;;;;;;;;;;;10.20;99.90;;;;;;5154446;27;19922;-38
2023/04/29 02:11:30;;;;;;;;;;;10.20;99.90;;;;;;5153516;27;20281;-38
2023/04/29 02:13:56;;;;;;;;;;;10.30;99.90;;;;;;5154144;27;19922;-38
2023/04/29 02:16:21;;;;;;;;;;;10.20;99.90;;;;;;5169426;27;19911;-38
2023/04/29 02:18:47;;;;;;;;;;;10.20;99.90;;;;;;5174379;27;20005;-38
2023/04/29 02:21:12;;;;;;;;;;;10.20;99.90;;;;;;5175127;27;19951;-38
2023/04/29 02:23:38;;;;;;;;;;;10.20;99.90;;;;;;5175087;27;19907;-38
2023/04/29 02:26:08;;;;;;;;;;;10.20;99.90;;;;;;5174547;27;19951;-37
2023/04/29 02:28:34;;;;;;;;;;;10.20;99.90;;;;;;5175031;27;19907;-38
2023/04/29 02:30:59;;;;;;;;;;;10.20;99.90;;;;;;5173857;27;19923;-37
2023/04/29 02:33:25;;;;;;;;;;;10.20;99.90;;;;;;5174810;27;19934;-38
2023/04/29 02:35:50;;;;;;;;;;;10.20;99.90;;;;;;5175005;27;19960;-38
2023/04/29 02:38:16;;;;;;;;;;;10.20;99.90;;;;;;5174029;27;19945;-38
2023/04/29 02:40:44;;;;;;;;;;;10.20;99.90;;;;;;5174963;27;19907;-38
2023/04/29 02:43:10;;;;;;;;;;;10.20;99.90;;;;;;5174850;27;19983;-38
2023/04/29 02:45:37;;;;;;;;;;;10.20;99.90;;;;;;5173641;27;20685;-38
2023/04/29 02:48:03;;;;;;;;;;;10.20;99.90;;;;;;5174959;27;19911;-38
2023/04/29 02:50:28;;;;;;;;;;;10.20;99.90;;;;;;5174582;27;19913;-38
2023/04/29 02:52:54;;;;;;;;;;;10.10;99.90;;;;;;5173821;27;19907;-38
2023/04/29 02:55:19;;;;;;;;;;;10.10;99.90;;;;;;5174776;27;19910;-38
2023/04/29 02:57:45;;;;;;;;;;;10.10;99.90;;;;;;5174624;27;19907;-38
2023/04/29 03:00:11;;;;;;;;;;;10.10;99.90;;;;;;5173415;27;19907;-38
2023/04/29 03:02:36;;;;;;;;;;;10.10;99.90;;;;;;5173935;27;19959;-38
2023/04/29 03:05:02;;;;;;;;;;;10.10;99.90;;;;;;5173773;27;20373;-38
2023/04/29 03:07:28;;;;;;;;;;;10.10;99.90;;;;;;5173736;27;20014;-38
2023/04/29 03:09:54;;;;;;;;;;;10.10;99.90;;;;;;5177944;27;19907;-38
2023/04/29 03:12:20;;;;;;;;;;;10.00;99.90;;;;;;5178378;27;20300;-38
2023/04/29 03:14:46;;;;;;;;;;;10.00;99.90;;;;;;5177405;27;19948;-38
2023/04/29 03:17:11;;;;;;;;;;;10.00;99.90;;;;;;5177734;27;19918;-38
2023/04/29 03:19:37;;;;;;;;;;;10.00;99.90;;;;;;5178307;27;20373;-38
2023/04/29 03:22:02;;;;;;;;;;;10.00;99.90;;;;;;5177485;27;19910;-38
2023/04/29 03:24:28;;;;;;;;;;;10.00;99.90;;;;;;5178152;27;19950;-38
2023/04/29 03:26:53;;;;;;;;;;;10.00;99.90;;;;;;5178176;27;20337;-38
2023/04/29 03:29:19;;;;;;;;;;;10.00;99.90;;;;;;5177122;27;19910;-38
2023/04/29 03:31:45;;;;;;;;;;;9.90;99.90;;;;;;5174660;27;19919;-38
2023/04/29 03:34:13;;;;;;;;;;;10.00;99.90;;;;;;5159165;27;19956;-38
2023/04/29 03:36:40;;;;;;;;;;;9.90;99.90;;;;;;5155406;27;20296;-38
2023/04/29 03:39:05;;;;;;;;;;;9.90;99.90;;;;;;5156366;27;20001;-38
2023/04/29 03:41:31;;;;;;;;;;;9.90;99.90;;;;;;5176417;27;19975;-38
2023/04/29 03:43:59;;;;;;;;;;;9.90;99.90;;;;;;5177860;27;20247;-38
2023/04/29 03:46:27;;;;;;;;;;;9.90;99.90;;;;;;5177388;27;20321;-38
2023/04/29 03:48:54;;;;;;;;;;;9.80;99.90;;;;;;5177013;27;20032;-38
2023/04/29 03:51:21;;;;;;;;;;;9.80;99.90;;;;;;5177568;27;19907;-38
2023/04/29 03:53:46;;;;;;;;;;;9.80;99.90;;;;;;5177584;27;20380;-37
2023/04/29 03:56:12;;;;;;;;;;;9.80;99.90;;;;;;5176760;27;19914;-39
2023/04/29 03:58:37;;;;;;;;;;;9.80;99.90;;;;;;5177560;27;19959;-38
2023/04/29 04:01:03;;;;;;;;;;;9.80;99.90;;;;;;5177357;27;19910;-37
2023/04/29 04:03:28;;;;;;;;;;;9.80;99.90;;;;;;5176603;27;20006;-38
2023/04/29 04:05:54;;;;;;;;;;;9.80;99.90;;;;;;5177531;27;19907;-38
2023/04/29 04:08:19;;;;;;;;;;;9.80;99.90;;;;;;5177333;27;19907;-38
2023/04/29 04:10:45;;;;;;;;;;;9.80;99.90;;;;;;5176490;27;19914;-37
2023/04/29 04:13:10;;;;;;;;;;;9.80;99.90;;;;;;5177203;27;19980;-38
2023/04/29 04:15:36;;;;;;;;;;;9.80;99.90;;;;;;5176739;27;19910;-38
2023/04/29 04:18:02;;;;;;;;;;;9.70;99.90;;;;;;5176539;27;19907;-37
2023/04/29 04:20:27;;;;;;;;;;;9.80;99.90;;;;;;5175951;27;20204;-38
2023/04/29 04:22:53;;;;;;;;;;;9.70;99.90;;;;;;5175768;27;20297;-37
2023/04/29 04:25:19;;;;;;;;;;;9.70;99.90;;;;;;5175619;27;19907;-38
2023/04/29 04:27:44;;;;;;;;;;;9.70;99.90;;;;;;5176370;27;19907;-38
2023/04/29 04:30:10;;;;;;;;;;;9.70;99.90;;;;;;5176077;27;19911;-38
2023/04/29 04:32:36;;;;;;;;;;;9.70;99.90;;;;;;5176044;27;20356;-37
2023/04/29 04:35:02;;;;;;;;;;;9.70;99.90;;;;;;5176805;27;19918;-38
2023/04/29 04:37:27;;;;;;;;;;;9.70;99.90;;;;;;5175959;27;19911;-37
2023/04/29 04:39:53;;;;;;;;;;;9.80;99.90;;;;;;5176947;27;19950;-38
2023/04/29 04:42:18;;;;;;;;;;;9.70;99.90;;;;;;5176724;27;19907;-38
2023/04/29 04:44:44;;;;;;;;;;;9.70;99.90;;;;;;5175803;27;19907;-38
2023/04/29 04:47:10;;;;;;;;;;;9.70;99.90;;;;;;5175701;27;20005;-38
2023/04/29 04:49:36;;;;;;;;;;;9.70;99.90;;;;;;5176039;27;19907;-38
2023/04/29 04:52:01;;;;;;;;;;;9.70;99.90;;;;;;5175594;27;20054;-37
2023/04/29 04:54:27;;;;;;;;;;;9.70;99.90;;;;;;5176012;27;19962;-38
2023/04/29 04:56:52;;;;;;;;;;;9.70;99.90;;;;;;5176342;27;19914;-38
2023/04/29 04:59:17;;;;;;;;;;;9.70;99.90;;;;;;5175484;27;19907;-37
2023/04/29 05:01:43;;;;;;;;;;;9.70;99.90;;;;;;5176401;27;20010;-38
2023/04/29 05:04:09;;;;;;;;;;;9.70;99.90;;;;;;5175896;27;20258;-38
2023/04/29 05:06:35;;;;;;;;;;;9.70;99.90;;;;;;5175389;27;19958;-38
2023/04/29 05:09:00;;;;;;;;;;;9.70;99.90;;;;;;5176144;27;19914;-38
2023/04/29 05:11:25;;;;;;;;;;;9.80;99.90;;;;;;5176060;27;19914;-38
2023/04/29 05:13:51;;;;;;;;;;;9.70;99.90;;;;;;5175367;27;19967;-37
2023/04/29 05:16:17;;;;;;;;;;;9.80;99.90;;;;;;5175878;27;20339;-38
2023/04/29 05:18:44;;;;;;;;;;;9.70;99.90;;;;;;5176094;27;19959;-38
2023/04/29 05:21:10;;;;;;;;;;;9.80;99.90;;;;;;5175113;27;20365;-38
2023/04/29 05:23:35;;;;;;;;;;;9.80;99.90;;;;;;5175657;27;19927;-37
2023/04/29 05:26:01;;;;;;;;;;;9.80;99.90;;;;;;5170529;27;19918;-38
2023/04/29 05:28:26;;;;;;;;;;;9.80;99.90;;;;;;5175007;27;19907;-38
2023/04/29 05:30:52;;;;;;;;;;;9.80;99.90;;;;;;5175284;27;20377;-38
2023/04/29 05:33:19;;;;;;;;;;;9.80;99.90;;;;;;5175530;27;20353;-38
2023/04/29 05:35:44;;;;;;;;;;;9.80;99.90;;;;;;5175053;27;19907;-38
2023/04/29 05:38:10;;;;;;;;;;;9.90;99.90;;;;;;5168956;27;20318;-38
2023/04/29 05:40:36;;;;;;;;;;;9.80;99.90;;;;;;5166957;27;19965;-38
2023/04/29 05:43:01;;;;;;;;;;;9.90;99.90;;;;;;5165820;27;19915;-38
2023/04/29 05:45:26;;;;;;;;;;;9.80;99.90;;;;;;5175071;27;19911;-38
2023/04/29 05:47:52;;;;;;;;;;;9.80;99.90;;;;;;5174746;27;19997;-37
2023/04/29 05:50:17;;;;;;;;;;;9.90;99.90;;;;;;5175215;27;19959;-38
2023/04/29 05:52:43;;;;;;;;;;;9.90;99.90;;;;;;5175352;27;20388;-38
2023/04/29 05:55:08;;;;;;;;;;;9.90;99.90;;;;;;5174498;27;19915;-39
2023/04/29 05:57:34;;;;;;;;;;;9.90;99.90;;;;;;5175415;27;19907;-37
2023/04/29 06:00:00;;;;;;;;;;;9.90;99.90;;;;;;5175447;27;19946;-38
2023/04/29 06:02:25;;;;;;;;;;;10.00;99.90;;;;;;5174390;27;19907;-38
2023/04/29 06:04:51;;;;;;;;;;;10.00;99.90;;;;;;5170680;27;19911;-38
2023/04/29 06:07:16;;;;;;;;;;;10.00;99.90;;;;;;5154802;27;19998;-37
2023/04/29 06:09:42;;;;;;;;;;;10.00;99.90;;;;;;5167248;27;19906;-37
2023/04/29 06:12:08;;;;;;;;;;;10.00;99.90;;;;;;5164856;27;19907;-38
2023/04/29 06:14:34;;;;;;;;;;;10.10;99.90;;;;;;5173376;27;19915;-38
2023/04/29 06:16:59;;;;;;;;;;;10.10;99.90;;;;;;5173973;27;19918;-38
2023/04/29 06:19:25;;;;;;;;;;;10.20;99.90;;;;;;5174865;27;19910;-38
2023/04/29 06:21:50;;;;;;;;;;;10.20;99.90;;;;;;5175175;27;19950;-38
2023/04/29 06:24:16;;;;;;;;;;;10.20;99.90;;;;;;5174238;27;19913;-37
2023/04/29 06:26:41;;;;;;;;;;;10.20;99.90;;;;;;5164349;27;19918;-38
2023/04/29 06:29:07;;;;;;;;;;;10.30;99.90;;;;;;5171781;27;19911;-38
2023/04/29 06:31:32;;;;;;;;;;;10.30;99.90;;;;;;5172891;27;19919;-39
2023/04/29 06:33:58;;;;;;;;;;;10.30;99.90;;;;;;5175086;27;20010;-38
2023/04/29 06:36:23;;;;;;;;;;;10.40;99.90;;;;;;5174656;27;19915;-38
2023/04/29 06:38:49;;;;;;;;;;;10.40;99.90;;;;;;5174217;27;19913;-38
2023/04/29 06:41:14;;;;;;;;;;;10.50;99.90;;;;;;5174841;27;19930;-38
2023/04/29 06:43:42;;;;;;;;;;;10.60;99.90;;;;;;5170096;27;19911;-38
2023/04/29 06:46:07;;;;;;;;;;;10.60;99.90;;;;;;5173725;27;19994;-38
2023/04/29 06:48:33;;;;;;;;;;;10.70;99.90;;;;;;5173403;27;20422;-38
2023/04/29 06:50:58;;;;;;;;;;;10.70;99.90;;;;;;5176662;27;19911;-38
2023/04/29 06:53:24;;;;;;;;;;;10.80;99.90;;;;;;5178670;27;20294;-38
2023/04/29 06:55:49;;;;;;;;;;;10.90;99.90;;;;;;5176540;27;19945;-37
2023/04/29 06:58:17;;;;;;;;;;;10.90;99.90;;;;;;5157969;27;19918;-38
2023/04/29 07:00:43;;;;;;;;;;;11.00;99.90;;;;;;5158533;27;19993;-38
2023/04/29 07:03:09;;;;;;;;;;;11.10;99.90;;;;;;5158128;27;19942;-38
2023/04/29 07:05:35;;;;;;;;;;;11.10;99.90;;;;;;5156910;27;20262;-38
2023/04/29 07:08:01;;;;;;;;;;;11.10;99.90;;;;;;5157684;27;19928;-38
2023/04/29 07:10:26;;;;;;;;;;;11.10;99.90;;;;;;5157542;27;19917;-38
2023/04/29 07:12:52;;;;;;;;;;;11.10;99.90;;;;;;5156850;27;19968;-38
2023/04/29 07:15:17;;;;;;;;;;;11.10;99.90;;;;;;5157856;27;19972;-38
2023/04/29 07:17:43;;;;;;;;;;;11.10;99.90;;;;;;5177494;27;20001;-37
2023/04/29 07:20:08;;;;;;;;;;;11.10;99.90;;;;;;5176905;27;19907;-38
2023/04/29 07:22:34;;;;;;;;;;;11.10;99.90;;;;;;5178281;27;19914;-38
2023/04/29 07:25:00;;;;;;;;;;;11.10;99.90;;;;;;5177722;27;19918;-38
2023/04/29 07:27:26;;;;;;;;;;;11.10;99.90;;;;;;5168287;27;20364;-38
2023/04/29 07:29:51;;;;;;;;;;;11.10;99.90;;;;;;5157402;27;20002;-38
2023/04/29 07:32:17;;;;;;;;;;;11.10;99.90;;;;;;5156837;27;19919;-38
2023/04/29 07:34:42;;;;;;;;;;;11.20;99.90;;;;;;5165237;27;19918;-38
2023/04/29 07:37:08;;;;;;;;;;;11.20;99.90;;;;;;5177514;27;19914;-38
2023/04/29 07:39:34;;;;;;;;;;;11.20;99.90;;;;;;5177953;27;20376;-38
2023/04/29 07:42:00;;;;;;;;;;;11.20;99.90;;;;;;5177312;27;19907;-38
2023/04/29 07:44:25;;;;;;;;;;;11.20;99.90;;;;;;5177803;27;19966;-38
2023/04/29 07:46:51;;;;;;;;;;;11.20;99.90;;;;;;5176324;27;19971;-38
2023/04/29 07:49:16;;;;;;;;;;;11.20;99.90;;;;;;5171172;27;20013;-38
2023/04/29 07:51:42;;;;;;;;;;;11.20;99.90;;;;;;5169972;27;20379;-38
2023/04/29 07:54:08;;;;;;;;;;;11.20;99.90;;;;;;5163522;27;19922;-39
2023/04/29 07:56:34;;;;;;;;;;;11.20;99.90;;;;;;5175618;27;20424;-38
2023/04/29 07:59:00;;;;;;;;;;;11.30;99.90;;;;;;5156897;27;19907;-38
2023/04/29 08:01:26;;;;;;;;;;;11.40;99.90;;;;;;5156073;27;19964;-38
2023/04/29 08:03:51;;;;;;;;;;;11.40;99.90;;;;;;5170417;27;19950;-38
2023/04/29 08:06:19;;;;;;;;;;;11.50;99.90;;;;;;5171679;27;19911;-38
2023/04/29 08:08:45;;;;;;;;;;;11.50;99.90;;;;;;5156186;27;20385;-38
2023/04/29 08:11:17;;;;;;;;;;;11.60;99.90;;;;;;5169804;27;19961;-38
2023/04/29 08:13:42;;;;;;;;;;;11.60;99.90;;;;;;5177303;27;19987;-38
2023/04/29 08:16:08;;;;;;;;;;;11.70;99.90;;;;;;5168120;27;19915;-37
2023/04/29 08:18:34;;;;;;;;;;;11.80;99.90;;;;;;5156364;27;19907;-38
2023/04/29 08:20:59;;;;;;;;;;;11.90;99.90;;;;;;5173461;27;19915;-38
2023/04/29 08:23:25;;;;;;;;;;;11.90;99.90;;;;;;5176201;27;19914;-38
2023/04/29 08:25:51;;;;;;;;;;;12.00;99.90;;;;;;5177223;27;19907;-38
2023/04/29 08:28:16;;;;;;;;;;;12.00;99.90;;;;;;5176972;27;19911;-38
2023/04/29 08:30:42;;;;;;;;;;;12.00;99.90;;;;;;5176028;27;19918;-38
2023/04/29 08:33:07;;;;;;;;;;;12.10;99.90;;;;;;5176879;27;19907;-38
2023/04/29 08:35:36;;;;;;;;;;;12.10;99.90;;;;;;5176949;27;19911;-38
2023/04/29 08:38:03;;;;;;;;;;;12.00;99.90;;;;;;5176193;27;19959;-38
2023/04/29 08:40:29;;;;;;;;;;;11.90;99.90;;;;;;5176743;27;19907;-38
2023/04/29 08:42:56;;;;;;;;;;;12.00;99.90;;;;;;5176868;27;19907;-38
2023/04/29 08:45:23;;;;;;;;;;;12.10;99.90;;;;;;5175790;27;19914;-38
2023/04/29 08:47:50;;;;;;;;;;;12.20;99.90;;;;;;5160777;27;20049;-38
2023/04/29 08:50:16;;;;;;;;;;;12.30;99.90;;;;;;5159611;27;19911;-38
2023/04/29 08:52:42;;;;;;;;;;;12.40;99.90;;;;;;5155007;27;19915;-38
2023/04/29 08:55:08;;;;;;;;;;;12.50;99.90;;;;;;5165194;27;20025;-38
2023/04/29 08:57:38;;;;;;;;;;;12.60;99.90;;;;;;5166780;27;19911;-38
2023/04/29 09:00:05;;;;;;;;;;;12.70;99.90;;;;;;5157775;27;19946;-38
2023/04/29 09:02:31;;;;;;;;;;;12.90;99.90;;;;;;5161671;27;19911;-38
2023/04/29 09:05:03;;;;;;;;;;;13.00;99.90;;;;;;5165354;27;20396;-38
2023/04/29 09:07:29;;;;;;;;;;;13.00;99.90;;;;;;5175631;27;20393;-38
2023/04/29 09:09:56;;;;;;;;;;;13.10;99.90;;;;;;5175952;27;20293;-38
2023/04/29 09:12:21;;;;;;;;;;;13.20;99.90;;;;;;5174802;27;19915;-38
2023/04/29 09:14:47;;;;;;;;;;;13.30;99.90;;;;;;5175918;27;19922;-38
2023/04/29 09:17:15;;;;;;;;;;;13.50;99.90;;;;;;5176092;27;20433;-38
2023/04/29 09:19:41;;;;;;;;;;;13.70;99.90;;;;;;5175245;27;19914;-38
2023/04/29 09:22:06;;;;;;;;;;;13.90;99.90;;;;;;5175928;27;19907;-39
2023/04/29 09:24:32;;;;;;;;;;;13.90;99.90;;;;;;5168438;27;19911;-38
2023/04/29 09:26:58;;;;;;;;;;;13.80;99.90;;;;;;5164061;27;19907;-38
2023/04/29 09:29:24;;;;;;;;;;;13.70;99.90;;;;;;5154774;27;20285;-38
2023/04/29 09:31:52;;;;;;;;;;;13.60;99.90;;;;;;5154759;27;19944;-38
2023/04/29 09:34:29;;;;;;;;;;;13.70;99.90;;;;;;5154037;27;19926;-38
2023/04/29 09:36:57;;;;;;;;;;;13.70;99.90;;;;;;5158174;27;19911;-39
2023/04/29 09:39:23;;;;;;;;;;;14.00;99.90;;;;;;5175344;27;20364;-38
2023/04/29 09:41:49;;;;;;;;;;;14.10;99.90;;;;;;5172435;27;19994;-39
2023/04/29 09:44:15;;;;;;;;;;;14.30;99.90;;;;;;5154605;27;19914;-39
2023/04/29 09:46:41;;;;;;;;;;;14.30;99.90;;;;;;5154836;27;19946;-39
2023/04/29 09:49:25;;;;;;;;;;;14.40;99.90;;;;;;5153893;27;19954;-38
2023/04/29 09:51:51;;;;;;;;;;;14.50;99.90;;;;;;5154701;27;19914;-38
2023/04/29 09:54:21;;;;;;;;;;;14.70;99.90;;;;;;5153660;27;20412;-39
2023/04/29 09:56:51;;;;;;;;;;;14.70;99.90;;;;;;5163170;27;19955;-38
2023/04/29 09:59:19;;;;;;;;;;;14.80;99.90;;;;;;5172874;27;19931;-39
2023/04/29 10:01:47;;;;;;;;;;;14.80;99.90;;;;;;5173436;27;19915;-38
2023/04/29 10:04:14;;;;;;;;;;;14.90;99.90;;;;;;5173455;27;19932;-38
2023/04/29 10:06:40;;;;;;;;;;;14.90;99.90;;;;;;5174187;27;19922;-38
2023/04/29 10:09:07;;;;;;;;;;;15.00;99.90;;;;;;5173282;27;20022;-39
2023/04/29 10:11:33;;;;;;;;;;;15.10;99.90;;;;;;5174043;27;19911;-38
2023/04/29 10:13:59;;;;;;;;;;;15.10;99.90;;;;;;5174479;27;20334;-38
2023/04/29 10:16:28;;;;;;;;;;;14.90;99.90;;;;;;5173649;27;19961;-38
2023/04/29 10:18:54;;;;;;;;;;;14.80;99.90;;;;;;5177769;27;19914;-38
2023/04/29 10:21:23;;;;;;;;;;;14.90;99.90;;;;;;5178632;27;20369;-39
2023/04/29 10:23:49;;;;;;;;;;;14.90;99.90;;;;;;5177771;27;20254;-38
2023/04/29 10:26:15;;;;;;;;;;;15.10;99.90;;;;;;5177597;27;19922;-38
2023/04/29 10:28:41;;;;;;;;;;;15.20;99.90;;;;;;5179420;27;19942;-38
2023/04/29 10:31:07;;;;;;;;;;;15.40;99.90;;;;;;5178313;27;19919;-38
2023/04/29 10:33:34;;;;;;;;;;;15.40;99.90;;;;;;5179225;27;19915;-38
2023/04/29 10:36:00;;;;;;;;;;;15.30;99.90;;;;;;5178293;27;19911;-41
2023/04/29 10:38:29;;;;;;;;;;;15.10;99.90;;;;;;5179154;27;19914;-38
2023/04/29 10:40:56;;;;;;;;;;;14.90;99.90;;;;;;5179326;27;20272;-39
2023/04/29 10:43:23;;;;;;;;;;;14.90;99.90;;;;;;5178305;27;19921;-39
2023/04/29 10:45:48;;;;;;;;;;;15.10;99.90;;;;;;5179116;27;20010;-38
2023/04/29 10:48:14;;;;;;;;;;;15.10;99.90;;;;;;5178988;27;19942;-38
2023/04/29 10:50:58;;;;;;;;;;;15.20;99.90;;;;;;5177807;27;20436;-39
2023/04/29 10:53:24;;;;;;;;;;;15.20;99.90;;;;;;5179090;27;19930;-38
2023/04/29 10:55:54;;;;;;;;;;;15.30;99.90;;;;;;5178472;27;20361;-39
2023/04/29 10:58:37;;;;;;;;;;;15.30;99.90;;;;;;5177797;27;19907;-38
2023/04/29 11:01:04;;;;;;;;;;;15.30;99.90;;;;;;5175743;27;19990;-38
2023/04/29 11:03:46;;;;;;;;;;;15.40;99.90;;;;;;5178523;27;19934;-39
2023/04/29 11:06:11;;;;;;;;;;;15.40;99.90;;;;;;5177838;27;19910;-38
2023/04/29 11:08:41;;;;;;;;;;;15.50;99.90;;;;;;5177802;27;19910;-38
2023/04/29 11:11:06;;;;;;;;;;;15.50;99.90;;;;;;5178574;27;19906;-38
2023/04/29 11:13:36;;;;;;;;;;;15.60;99.90;;;;;;5177546;27;20369;-38
2023/04/29 11:16:05;;;;;;;;;;;15.60;99.90;;;;;;5178128;27;20365;-38
2023/04/29 11:18:31;;;;;;;;;;;15.60;99.90;;;;;;5177547;27;19911;-38
2023/04/29 11:21:03;;;;;;;;;;;15.50;99.90;;;;;;5178449;27;19917;-38
2023/04/29 11:23:28;;;;;;;;;;;15.60;99.90;;;;;;5177058;27;19914;-38
2023/04/29 11:25:55;;;;;;;;;;;15.60;99.90;;;;;;5177435;27;19951;-39
2023/04/29 11:28:21;;;;;;;;;;;15.70;99.90;;;;;;5177055;27;20202;-39
2023/04/29 11:30:47;;;;;;;;;;;15.70;99.90;;;;;;5177881;27;19962;-39
2023/04/29 11:33:12;;;;;;;;;;;15.80;99.90;;;;;;5177136;27;19934;-38
2023/04/29 11:35:38;;;;;;;;;;;15.80;99.90;;;;;;5177510;27;20340;-39
2023/04/29 11:38:04;;;;;;;;;;;15.80;99.90;;;;;;5178014;27;19907;-38
2023/04/29 11:40:31;;;;;;;;;;;15.80;99.90;;;;;;5177106;27;19975;-38
2023/04/29 11:42:56;;;;;;;;;;;15.90;99.90;;;;;;5177938;27;20428;-39
2023/04/29 11:45:22;;;;;;;;;;;16.00;99.90;;;;;;5177904;27;19907;-38
2023/04/29 11:47:48;;;;;;;;;;;16.10;99.90;;;;;;5168870;27;19956;-38
2023/04/29 11:50:18;;;;;;;;;;;16.20;99.90;;;;;;5174423;27;19918;-38
2023/04/29 11:52:47;;;;;;;;;;;16.30;99.90;;;;;;5167952;27;19934;-38
2023/04/29 11:55:13;;;;;;;;;;;16.40;99.90;;;;;;5170828;27;19930;-38
2023/04/29 11:57:39;;;;;;;;;;;16.50;99.90;;;;;;5174435;27;20005;-38
2023/04/29 12:00:07;;;;;;;;;;;16.60;99.90;;;;;;5159298;27;19998;-38
2023/04/29 12:02:33;;;;;;;;;;;16.60;99.90;;;;;;5160526;27;19911;-38
2023/04/29 12:04:59;;;;;;;;;;;16.70;99.90;;;;;;5158788;27;20001;-38
2023/04/29 12:07:25;;;;;;;;;;;16.70;99.90;;;;;;5163074;27;19913;-38
2023/04/29 12:09:51;;;;;;;;;;;16.70;99.90;;;;;;5175898;27;20002;-39
2023/04/29 12:12:16;;;;;;;;;;;16.80;99.90;;;;;;5175915;27;20009;-38
2023/04/29 12:14:42;;;;;;;;;;;16.80;99.90;;;;;;5175793;27;20014;-38
2023/04/29 12:17:08;;;;;;;;;;;16.90;99.90;;;;;;5175843;27;20258;-38
2023/04/29 12:19:36;;;;;;;;;;;17.00;99.90;;;;;;5176207;27;20345;-38
2023/04/29 12:22:02;;;;;;;;;;;17.00;99.90;;;;;;5175462;27;20314;-38
2023/04/29 12:24:27;;;;;;;;;;;17.10;99.90;;;;;;5175653;27;19910;-38
2023/04/29 12:26:58;;;;;;;;;;;17.20;99.90;;;;;;5166046;27;20280;-38
2023/04/29 12:29:24;;;;;;;;;;;17.30;99.90;;;;;;5174886;27;19907;-38
2023/04/29 12:31:50;;;;;;;;;;;17.40;99.90;;;;;;5175051;27;20377;-38
2023/04/29 12:34:15;;;;;;;;;;;17.50;99.90;;;;;;5154499;27;19926;-39
2023/04/29 12:36:41;;;;;;;;;;;17.60;99.90;;;;;;5153965;27;19907;-39
2023/04/29 12:39:09;;;;;;;;;;;17.70;99.90;;;;;;5173498;27;19915;-39
2023/04/29 12:41:43;;;;;;;;;;;17.70;99.90;;;;;;5174774;27;19949;-38
2023/04/29 12:44:09;;;;;;;;;;;17.70;99.90;;;;;;5174788;27;19974;-39
2023/04/29 12:46:36;;;;;;;;;;;17.80;99.90;;;;;;5176315;27;20348;-38
2023/04/29 12:49:03;;;;;;;;;;;17.80;99.90;;;;;;5163518;27;19960;-38
2023/04/29 12:51:31;;;;;;;;;;;17.90;99.30;;;;;;5158322;27;19947;-39
2023/04/29 12:53:57;;;;;;;;;;;18.00;99.90;;;;;;5159516;27;20009;-39
2023/04/29 12:56:22;;;;;;;;;;;18.10;98.90;;;;;;5169685;27;20365;-38
2023/04/29 12:58:48;;;;;;;;;;;18.20;99.90;;;;;;5164324;27;19914;-39
2023/04/29 13:01:15;;;;;;;;;;;18.30;98.90;;;;;;5173169;27;20003;-39
2023/04/29 13:03:40;;;;;;;;;;;18.50;97.20;;;;;;5155077;27;19907;-39
2023/04/29 13:06:07;;;;;;;;;;;18.70;98.10;;;;;;5158500;27;19907;-39
2023/04/29 13:08:32;;;;;;;;;;;18.80;97.10;;;;;;5155238;27;19911;-39
2023/04/29 13:10:58;;;;;;;;;;;19.10;96.30;;;;;;5156563;27;20399;-39
2023/04/29 13:13:24;;;;;;;;;;;19.40;97.30;;;;;;5169268;27;19907;-39
2023/04/29 13:15:49;;;;;;;;;;;19.60;96.80;;;;;;5155327;27;19918;-39
2023/04/29 13:18:15;;;;;;;;;;;19.90;98.20;;;;;;5160602;27;20006;-38
2023/04/29 13:20:41;;;;;;;;;;;20.10;98.00;;;;;;5167362;27;19911;-39
2023/04/29 13:23:06;;;;;;;;;;;20.30;94.60;;;;;;5155700;27;19954;-39
2023/04/29 13:25:32;;;;;;;;;;;20.40;89.30;;;;;;5163282;27;19959;-39
2023/04/29 13:27:57;;;;;;;;;;;20.50;90.70;;;;;;5176157;27;19911;-40
2023/04/29 13:30:23;;;;;;;;;;;20.70;90.20;;;;;;5156723;27;19919;-39
2023/04/29 13:32:48;;;;;;;;;;;20.80;87.10;;;;;;5155076;27;20412;-39
2023/04/29 13:35:13;;;;;;;;;;;20.90;91.60;;;;;;5155373;27;20015;-39
2023/04/29 13:37:39;;;;;;;;;;;20.90;88.70;;;;;;5155691;27;19908;-39
2023/04/29 13:40:06;;;;;;;;;;;21.10;91.00;;;;;;5154771;27;19934;-39
2023/04/29 13:42:32;;;;;;;;;;;21.20;83.60;;;;;;5155522;27;19990;-39
2023/04/29 13:44:57;;;;;;;;;;;21.40;81.80;;;;;;5154872;27;20390;-39
2023/04/29 13:47:23;;;;;;;;;;;21.60;81.00;;;;;;5162763;27;19918;-39
2023/04/29 13:49:48;;;;;;;;;;;21.70;88.50;;;;;;5172951;27;19911;-38
2023/04/29 13:52:14;;;;;;;;;;;21.80;84.50;;;;;;5158221;27;19993;-39
2023/04/29 13:54:40;;;;;;;;;;;21.90;81.50;;;;;;5158046;27;19926;-38
2023/04/29 13:57:05;;;;;;;;;;;22.10;79.70;;;;;;5172378;27;19910;-39
2023/04/29 13:59:31;;;;;;;;;;;22.20;74.40;;;;;;5159932;27;20276;-39
2023/04/29 14:01:57;;;;;;;;;;;22.40;74.00;;;;;;5168059;27;19911;-40
2023/04/29 14:04:23;;;;;;;;;;;22.60;72.50;;;;;;5172886;27;19911;-40
2023/04/29 14:06:48;;;;;;;;;;;22.80;78.30;;;;;;5155133;27;19907;-39
2023/04/29 14:09:14;;;;;;;;;;;23.00;63.30;;;;;;5153394;27;20395;-39
2023/04/29 14:11:40;;;;;;;;;;;23.20;72.90;;;;;;5169548;27;20275;-39
2023/04/29 14:14:06;;;;;;;;;;;23.30;67.60;;;;;;5161638;27;19919;-39